Airfield :
LOGIN :

Register | Disclaimer

   EN    FR    IT 

 










Legend :    VFR   Marginal VFR   IFR   Intensive IFR   Very Intensive IFR
Visi :
Ceiling :
>= 8 km
>= 3000ft
5 to 8 km
1000 to 3000 ft
1500m to 5 km
500 to 1000 ft
800 to 1500m
200 to 500 ft
< 800m
< 200 ft
Symbols :   Thunderstorms  Fog  Heavy snow  Heavy precipitations  Wind > 20 kt
SIGMETs :     Misc.  Thunderstorms  Icing  Turbulence  Mountain Waves  Volcanic Ashes






- Airport Elevation : 26 ft
- IATA code : GLA


EGPF - Glasgow

CURRENT METAR :
  • 021120Z AUTO 20008KT 9999 NCD 06/04 Q1012

EXPIRED METARs :
  • 021050Z AUTO 22009KT 9999 FEW021 06/03 Q1013
  • 021020Z AUTO 21009KT 180V250 9999 BKN017/// //////TCU 07/04 Q1014
  • 020950Z AUTO 21008KT 9999 FEW024 06/04 Q1014
  • 020920Z AUTO 25007KT 9999 BKN024 OVC030 07/04 Q1015
  • 020850Z AUTO 24008KT 9999 SCT033/// BKN039/// //////TCU 05/04 Q1015

TAF TAF EGPF
Valid from the 02 at 12:00 until the 03 at 12:00 UTC


021056Z 0212/0312 23008KT 9999 SCT030
TEMPO 0212/0224 6000 SHRA BKN014
PROB30
TEMPO 0212/0224 25015G25KT
PROB30
TEMPO 0212/0221 3000 +SHRAGS BKN009 BKN020CB
PROB30
TEMPO 0221/0224 3000 +SHRAGS SHRASN BKN007 BKN020CB
TEMPO 0300/0312 4000 SHRA -SHRASN BKN010
PROB30
TEMPO 0300/0312 1200 +SHRAGS SHSN BKN006 BKN020CB
ATIS : +44 141 887 7449



MET'MAP, your aeronautical weather chart ! - Copyright ORBIFLY December 2007 - Disclaimer

ORBIFLY MET'MAP TEAM :

Programming & Development : Alexandra Zaïnal
Concept & original design : Baudouin d'Aumeries
Assistance for programming : Marc-Olivier Méhu
Technical & hardware support : Manuel Goepfert

Contact : metmap@orbifly.com




SOURCES & CREDITS :

   NOAA